createdAt,value
2023-01-09T00:00:00.905Z,7.11
2023-01-09T00:00:11.187Z,7.13
2023-01-09T00:00:21.455Z,7.13
2023-01-09T00:00:31.718Z,7.13
2023-01-09T00:00:42.063Z,7.10
2023-01-09T00:00:52.292Z,7.11
2023-01-09T00:01:02.546Z,7.11
2023-01-09T00:01:12.770Z,7.11
2023-01-09T00:01:23.000Z,7.11
2023-01-09T00:01:33.246Z,7.13
2023-01-09T00:01:43.472Z,7.11
2023-01-09T00:01:53.733Z,7.10
2023-01-09T00:02:04.029Z,7.11
2023-01-09T00:02:14.324Z,7.10
2023-01-09T00:02:24.587Z,7.11
2023-01-09T00:02:34.859Z,7.10
2023-01-09T00:02:45.134Z,7.10
2023-01-09T00:02:55.353Z,7.10
2023-01-09T00:03:05.591Z,7.10
2023-01-09T00:03:15.853Z,7.10
2023-01-09T00:03:26.073Z,7.10
2023-01-09T00:03:36.360Z,7.08
2023-01-09T00:03:46.639Z,7.10
2023-01-09T00:03:56.888Z,7.10
2023-01-09T00:04:07.201Z,7.10
2023-01-09T00:04:17.483Z,7.11
2023-01-09T00:04:27.704Z,7.10
2023-01-09T00:04:37.959Z,7.08
2023-01-09T00:04:48.186Z,7.08
2023-01-09T00:04:58.445Z,7.08
2023-01-09T00:05:08.674Z,7.08
2023-01-09T00:05:18.915Z,7.08
2023-01-09T00:05:29.150Z,7.08
2023-01-09T00:05:39.404Z,7.07
2023-01-09T00:05:49.659Z,7.07
2023-01-09T00:05:59.883Z,7.07
2023-01-09T00:06:10.140Z,7.05
2023-01-09T00:06:20.359Z,7.05
2023-01-09T00:06:30.606Z,7.05
2023-01-09T00:06:40.843Z,7.05
2023-01-09T00:06:51.092Z,7.04
2023-01-09T00:07:01.348Z,7.05
2023-01-09T00:07:11.613Z,7.05
2023-01-09T00:07:21.827Z,7.05
2023-01-09T00:07:32.067Z,7.05
2023-01-09T00:07:42.326Z,7.05
2023-01-09T00:07:52.572Z,7.04
2023-01-09T00:08:02.825Z,7.04
2023-01-09T00:08:13.075Z,7.04
2023-01-09T00:08:23.313Z,7.03
2023-01-09T00:08:33.544Z,7.04
2023-01-09T00:08:43.815Z,7.05
2023-01-09T00:08:54.047Z,7.03
2023-01-09T00:09:04.282Z,7.04
2023-01-09T00:09:14.531Z,7.01
2023-01-09T00:09:24.801Z,7.03
2023-01-09T00:09:35.017Z,7.01
2023-01-09T00:09:45.263Z,7.03
2023-01-09T00:09:55.487Z,7.01
2023-01-09T00:10:06.453Z,7.01
2023-01-09T00:10:16.086Z,7.00
2023-01-09T00:10:26.317Z,7.00
2023-01-09T00:10:36.538Z,7.01
2023-01-09T00:10:46.791Z,7.00
2023-01-09T00:10:57.021Z,7.00
2023-01-09T00:11:07.260Z,7.00
2023-01-09T00:11:17.509Z,7.00
2023-01-09T00:11:27.757Z,6.97
2023-01-09T00:11:37.991Z,7.00
2023-01-09T00:11:48.273Z,7.00
2023-01-09T00:11:58.490Z,7.00
2023-01-09T00:12:08.721Z,6.97
2023-01-09T00:12:18.972Z,6.97
2023-01-09T00:12:29.229Z,6.97
2023-01-09T00:12:39.428Z,7.00
2023-01-09T00:12:49.698Z,6.97
2023-01-09T00:12:59.976Z,6.97
2023-01-09T00:13:10.219Z,6.96
2023-01-09T00:13:20.457Z,6.96
2023-01-09T00:13:30.696Z,6.96
2023-01-09T00:13:40.991Z,6.97
2023-01-09T00:13:51.189Z,6.96
2023-01-09T00:14:01.429Z,6.96
2023-01-09T00:14:11.662Z,6.97
2023-01-09T00:14:21.915Z,6.95
2023-01-09T00:14:32.159Z,6.96
2023-01-09T00:14:42.406Z,6.96
2023-01-09T00:14:52.658Z,6.95
2023-01-09T00:15:02.888Z,6.96
2023-01-09T00:15:13.115Z,6.96
2023-01-09T00:15:23.357Z,6.95
2023-01-09T00:15:33.584Z,6.96
2023-01-09T00:15:43.853Z,6.95
2023-01-09T00:15:54.081Z,6.97
2023-01-09T00:16:04.302Z,6.96
2023-01-09T00:16:14.550Z,6.95
2023-01-09T00:16:24.784Z,6.96
2023-01-09T00:16:35.058Z,6.96
2023-01-09T00:16:45.312Z,6.95
2023-01-09T00:16:55.648Z,6.95
2023-01-09T00:17:05.987Z,6.95
2023-01-09T00:17:16.230Z,6.95
2023-01-09T00:17:26.471Z,6.93
2023-01-09T00:17:36.713Z,6.95
2023-01-09T00:17:46.948Z,6.95
2023-01-09T00:17:57.188Z,6.95
2023-01-09T00:18:07.421Z,6.95
2023-01-09T00:18:17.667Z,6.93
2023-01-09T00:18:27.891Z,6.96
2023-01-09T00:18:38.148Z,6.95
2023-01-09T00:18:48.398Z,6.93
2023-01-09T00:18:58.623Z,6.92
2023-01-09T00:19:08.876Z,6.95
2023-01-09T00:19:19.109Z,6.95
2023-01-09T00:19:29.351Z,6.93
2023-01-09T00:19:39.604Z,6.92
2023-01-09T00:19:49.858Z,6.93
2023-01-09T00:20:00.159Z,6.93
2023-01-09T00:20:10.380Z,6.95
2023-01-09T00:20:20.631Z,6.93
2023-01-09T00:20:30.869Z,6.92
2023-01-09T00:20:41.121Z,6.93
2023-01-09T00:20:51.366Z,6.92
2023-01-09T00:21:01.614Z,6.93
2023-01-09T00:21:11.855Z,6.95
2023-01-09T00:21:22.082Z,6.93
2023-01-09T00:21:32.324Z,6.93
2023-01-09T00:21:42.573Z,6.92
2023-01-09T00:21:52.807Z,6.93
2023-01-09T00:22:03.055Z,6.90
2023-01-09T00:22:13.305Z,6.92
2023-01-09T00:22:23.524Z,6.93
2023-01-09T00:22:33.764Z,6.92
2023-01-09T00:22:44.009Z,6.92
2023-01-09T00:22:54.262Z,6.92
2023-01-09T00:23:04.531Z,6.90
2023-01-09T00:23:14.743Z,6.93
2023-01-09T00:23:25.002Z,6.93
2023-01-09T00:23:35.230Z,6.92
2023-01-09T00:23:45.491Z,6.92
2023-01-09T00:23:55.734Z,6.90
2023-01-09T00:24:05.980Z,6.90
2023-01-09T00:24:16.223Z,6.90
2023-01-09T00:24:26.468Z,6.92
2023-01-09T00:24:36.702Z,6.90
2023-01-09T00:24:46.938Z,6.90
2023-01-09T00:24:57.210Z,6.89
2023-01-09T00:25:07.466Z,6.89
2023-01-09T00:25:17.688Z,6.89
2023-01-09T00:25:27.933Z,6.90
2023-01-09T00:25:38.178Z,6.89
2023-01-09T00:25:48.428Z,6.89
2023-01-09T00:25:58.682Z,6.87
2023-01-09T00:26:08.959Z,6.87
2023-01-09T00:26:19.171Z,6.87
2023-01-09T00:26:29.443Z,6.87
2023-01-09T00:26:39.681Z,6.89
2023-01-09T00:26:49.935Z,6.89
2023-01-09T00:27:00.193Z,6.87
2023-01-09T00:27:10.435Z,6.89
2023-01-09T00:27:20.671Z,6.86
2023-01-09T00:27:30.918Z,6.87
2023-01-09T00:27:41.151Z,6.87
2023-01-09T00:27:51.400Z,6.87
2023-01-09T00:28:01.636Z,6.87
2023-01-09T00:28:11.884Z,6.87
2023-01-09T00:28:22.113Z,6.86
2023-01-09T00:28:32.387Z,6.87
2023-01-09T00:28:42.618Z,6.87
2023-01-09T00:28:52.839Z,6.86
2023-01-09T00:29:03.068Z,6.86
2023-01-09T00:29:13.333Z,6.87
2023-01-09T00:29:23.545Z,6.87
2023-01-09T00:29:33.825Z,6.87
2023-01-09T00:29:44.035Z,6.86
2023-01-09T00:29:54.278Z,6.86
2023-01-09T00:30:04.519Z,6.87
2023-01-09T00:30:14.768Z,6.87
2023-01-09T00:30:25.093Z,6.87
2023-01-09T00:30:35.377Z,6.86
2023-01-09T00:30:45.672Z,6.87
2023-01-09T00:30:55.976Z,6.86
2023-01-09T00:31:06.285Z,6.86
2023-01-09T00:31:16.505Z,6.87
2023-01-09T00:31:26.756Z,6.86
2023-01-09T00:31:36.999Z,6.87
2023-01-09T00:31:47.233Z,6.87
2023-01-09T00:31:57.482Z,6.89
2023-01-09T00:32:07.733Z,6.86
2023-01-09T00:32:17.956Z,6.85
2023-01-09T00:32:28.236Z,6.87
2023-01-09T00:32:38.455Z,6.87
2023-01-09T00:32:48.671Z,6.86
2023-01-09T00:32:58.922Z,6.87
2023-01-09T00:33:09.171Z,6.85
2023-01-09T00:33:19.406Z,6.87
2023-01-09T00:33:29.642Z,6.86
2023-01-09T00:33:39.884Z,6.86
2023-01-09T00:33:50.140Z,6.85
2023-01-09T00:34:00.405Z,6.86
2023-01-09T00:34:10.661Z,6.85
2023-01-09T00:34:20.858Z,6.85
2023-01-09T00:34:31.095Z,6.85
2023-01-09T00:34:41.349Z,6.85
2023-01-09T00:34:51.583Z,6.86
2023-01-09T00:35:01.846Z,6.86
2023-01-09T00:35:12.061Z,6.85
2023-01-09T00:35:22.305Z,6.86
2023-01-09T00:35:32.569Z,6.85
2023-01-09T00:35:42.797Z,6.85
2023-01-09T00:35:53.032Z,6.83
2023-01-09T00:36:03.295Z,6.85
2023-01-09T00:36:13.533Z,6.85
2023-01-09T00:36:23.755Z,6.85
2023-01-09T00:36:34.009Z,6.83
2023-01-09T00:36:44.272Z,6.83
2023-01-09T00:36:54.526Z,6.85
2023-01-09T00:37:04.756Z,6.83
2023-01-09T00:37:14.999Z,6.85
2023-01-09T00:37:25.254Z,6.82
2023-01-09T00:37:35.539Z,6.85
2023-01-09T00:37:45.731Z,6.85
2023-01-09T00:37:55.971Z,6.85
2023-01-09T00:38:06.223Z,6.83
2023-01-09T00:38:16.445Z,6.82
2023-01-09T00:38:26.677Z,6.83
2023-01-09T00:38:36.924Z,6.83
2023-01-09T00:38:47.151Z,6.83
2023-01-09T00:38:57.402Z,6.83
2023-01-09T00:39:07.643Z,6.83
2023-01-09T00:39:17.884Z,6.83
2023-01-09T00:39:28.119Z,6.82
2023-01-09T00:39:38.360Z,6.83
2023-01-09T00:39:48.622Z,6.83
2023-01-09T00:39:58.839Z,6.83
2023-01-09T00:40:09.069Z,6.83
2023-01-09T00:40:19.317Z,6.83
2023-01-09T00:40:29.545Z,6.82
2023-01-09T00:40:39.794Z,6.82
2023-01-09T00:40:50.025Z,6.83
2023-01-09T00:41:00.288Z,6.85
2023-01-09T00:41:10.505Z,6.83
2023-01-09T00:41:20.750Z,6.85
2023-01-09T00:41:31.000Z,6.82
2023-01-09T00:41:41.245Z,6.83
2023-01-09T00:41:51.483Z,6.85
2023-01-09T00:42:01.841Z,6.78
2023-01-09T00:42:12.080Z,6.83
2023-01-09T00:42:22.294Z,6.80
2023-01-09T00:42:32.560Z,6.83
2023-01-09T00:42:42.790Z,6.83
2023-01-09T00:42:53.037Z,6.83
2023-01-09T00:43:03.263Z,6.83
2023-01-09T00:43:13.516Z,6.83
2023-01-09T00:43:23.740Z,6.82
2023-01-09T00:43:34.021Z,6.82
2023-01-09T00:43:44.234Z,6.82
2023-01-09T00:43:54.489Z,6.83
2023-01-09T00:44:04.701Z,6.82
2023-01-09T00:44:14.952Z,6.83
2023-01-09T00:44:25.186Z,6.82
2023-01-09T00:44:35.416Z,6.83
2023-01-09T00:44:45.650Z,6.80
2023-01-09T00:44:55.913Z,6.83
2023-01-09T00:45:06.132Z,6.82
2023-01-09T00:45:16.370Z,6.82
2023-01-09T00:45:26.613Z,6.82
2023-01-09T00:45:36.884Z,6.82
2023-01-09T00:45:47.152Z,6.82
2023-01-09T00:45:57.369Z,6.82
2023-01-09T00:46:07.692Z,6.82
2023-01-09T00:46:18.001Z,6.83
2023-01-09T00:46:28.233Z,6.82
2023-01-09T00:46:38.505Z,6.85
2023-01-09T00:46:48.751Z,6.83
2023-01-09T00:46:58.989Z,6.82
2023-01-09T00:47:09.210Z,6.82
2023-01-09T00:47:19.465Z,6.83
2023-01-09T00:47:29.692Z,6.83
2023-01-09T00:47:39.924Z,6.82
2023-01-09T00:47:50.187Z,6.82
2023-01-09T00:48:00.416Z,6.83
2023-01-09T00:48:10.671Z,6.82
2023-01-09T00:48:20.885Z,6.82
2023-01-09T00:48:31.140Z,6.83
2023-01-09T00:48:41.376Z,6.82
2023-01-09T00:48:51.645Z,6.82
2023-01-09T00:49:01.859Z,6.80
2023-01-09T00:49:12.091Z,6.83
2023-01-09T00:49:22.329Z,6.82
2023-01-09T00:49:32.574Z,6.85
2023-01-09T00:49:42.805Z,6.83
2023-01-09T00:49:53.058Z,6.82
2023-01-09T00:50:03.283Z,6.82
2023-01-09T00:50:13.530Z,6.82
2023-01-09T00:50:23.765Z,6.83
2023-01-09T00:50:33.990Z,6.80
2023-01-09T00:50:44.239Z,6.82
2023-01-09T00:50:54.493Z,6.82
2023-01-09T00:51:04.737Z,6.80
2023-01-09T00:51:14.973Z,6.80
2023-01-09T00:51:25.238Z,6.82
2023-01-09T00:51:35.457Z,6.82
2023-01-09T00:51:45.708Z,6.82
2023-01-09T00:51:55.968Z,6.82
2023-01-09T00:52:06.206Z,6.80
2023-01-09T00:52:16.445Z,6.82
2023-01-09T00:52:26.665Z,6.80
2023-01-09T00:52:36.918Z,6.82
2023-01-09T00:52:47.164Z,6.82
2023-01-09T00:52:57.442Z,6.80
2023-01-09T00:53:07.672Z,6.80
2023-01-09T00:53:17.926Z,6.83
2023-01-09T00:53:28.153Z,6.82
2023-01-09T00:53:38.377Z,6.80
2023-01-09T00:53:48.639Z,6.80
2023-01-09T00:53:58.881Z,6.83
2023-01-09T00:54:09.116Z,6.83
2023-01-09T00:54:19.353Z,6.82
2023-01-09T00:54:29.615Z,6.80
2023-01-09T00:54:39.864Z,6.78
2023-01-09T00:54:50.064Z,6.80
2023-01-09T00:55:00.322Z,6.80
2023-01-09T00:55:10.555Z,6.80
2023-01-09T00:55:20.788Z,6.80
2023-01-09T00:55:31.053Z,6.82
2023-01-09T00:55:41.322Z,6.82
2023-01-09T00:55:51.565Z,6.78
2023-01-09T00:56:01.784Z,6.80
2023-01-09T00:56:12.059Z,6.80
2023-01-09T00:56:22.272Z,6.80
2023-01-09T00:56:32.521Z,6.82
2023-01-09T00:56:42.777Z,6.80
2023-01-09T00:56:53.043Z,6.80
2023-01-09T00:57:03.250Z,6.82
2023-01-09T00:57:13.498Z,6.82
2023-01-09T00:57:23.727Z,6.78
2023-01-09T00:57:33.965Z,6.80
2023-01-09T00:57:44.203Z,6.78
2023-01-09T00:57:54.438Z,6.82
2023-01-09T00:58:04.674Z,6.78
2023-01-09T00:58:14.922Z,6.78
2023-01-09T00:58:25.180Z,6.80
2023-01-09T00:58:35.430Z,6.80
2023-01-09T00:58:45.646Z,6.78
2023-01-09T00:58:55.887Z,6.78
2023-01-09T00:59:06.142Z,6.78
2023-01-09T00:59:16.411Z,6.82
2023-01-09T00:59:26.646Z,6.78
2023-01-09T00:59:36.926Z,6.78
2023-01-09T00:59:47.152Z,6.77
2023-01-09T00:59:57.392Z,6.78
2023-01-09T01:00:07.633Z,6.80
2023-01-09T01:00:17.864Z,6.82
2023-01-09T01:00:28.111Z,6.78
2023-01-09T01:00:38.377Z,6.78
2023-01-09T01:00:48.645Z,6.78
2023-01-09T01:00:59.030Z,6.77
2023-01-09T01:01:09.416Z,6.78
2023-01-09T01:01:19.583Z,6.77
2023-01-09T01:01:29.922Z,6.78
2023-01-09T01:01:40.267Z,6.77
2023-01-09T01:01:50.547Z,6.80
2023-01-09T01:02:01.083Z,6.80
2023-01-09T01:02:11.376Z,6.78
2023-01-09T01:02:21.692Z,6.78
2023-01-09T01:02:31.912Z,6.77
2023-01-09T01:02:42.008Z,6.78
2023-01-09T01:02:52.269Z,6.77
2023-01-09T01:03:02.561Z,6.77
2023-01-09T01:03:12.770Z,6.78
2023-01-09T01:03:23.022Z,6.77
2023-01-09T01:03:33.282Z,6.75
2023-01-09T01:03:43.510Z,6.77
2023-01-09T01:03:53.770Z,6.80
2023-01-09T01:04:04.008Z,6.78
2023-01-09T01:04:14.252Z,6.77
2023-01-09T01:04:24.515Z,6.78
2023-01-09T01:04:34.740Z,6.77
2023-01-09T01:04:45.007Z,6.78
2023-01-09T01:04:55.249Z,6.77
2023-01-09T01:05:05.485Z,6.77
2023-01-09T01:05:15.725Z,6.75
2023-01-09T01:05:25.970Z,6.77
2023-01-09T01:05:36.220Z,6.78
2023-01-09T01:05:46.466Z,6.77
2023-01-09T01:05:56.728Z,6.78
2023-01-09T01:06:06.935Z,6.77
2023-01-09T01:06:17.196Z,6.77
2023-01-09T01:06:27.431Z,6.77
2023-01-09T01:06:37.662Z,6.77
2023-01-09T01:06:47.894Z,6.77
2023-01-09T01:06:58.132Z,6.77
2023-01-09T01:07:08.370Z,6.77
2023-01-09T01:07:18.632Z,6.77
2023-01-09T01:07:28.856Z,6.77
2023-01-09T01:07:39.144Z,6.75
2023-01-09T01:07:49.362Z,6.77
2023-01-09T01:07:59.700Z,6.77
2023-01-09T01:08:09.892Z,6.74
2023-01-09T01:08:20.138Z,6.77
2023-01-09T01:08:30.366Z,6.75
2023-01-09T01:08:40.617Z,6.75
2023-01-09T01:08:50.854Z,6.75
2023-01-09T01:09:01.091Z,6.77
2023-01-09T01:09:11.345Z,6.77
2023-01-09T01:09:21.655Z,6.75
2023-01-09T01:09:31.892Z,6.75
2023-01-09T01:09:42.130Z,6.77
2023-01-09T01:09:52.388Z,6.75
2023-01-09T01:10:02.609Z,6.74
2023-01-09T01:10:12.844Z,6.74
2023-01-09T01:10:23.077Z,6.75
2023-01-09T01:10:33.317Z,6.75
2023-01-09T01:10:43.581Z,6.74
2023-01-09T01:10:53.811Z,6.74
2023-01-09T01:11:04.035Z,6.72
2023-01-09T01:11:14.274Z,6.75
2023-01-09T01:11:24.528Z,6.74
2023-01-09T01:11:34.750Z,6.74
2023-01-09T01:11:44.980Z,6.72
2023-01-09T01:11:55.230Z,6.74
2023-01-09T01:12:05.465Z,6.72
2023-01-09T01:12:15.702Z,6.77
2023-01-09T01:12:25.949Z,6.74
2023-01-09T01:12:36.192Z,6.74
2023-01-09T01:12:46.426Z,6.72
2023-01-09T01:12:56.683Z,6.72
2023-01-09T01:13:07.022Z,6.72
2023-01-09T01:13:17.300Z,6.74
2023-01-09T01:13:27.505Z,6.72
2023-01-09T01:13:37.751Z,6.74
2023-01-09T01:13:47.980Z,6.72
2023-01-09T01:13:58.232Z,6.74
2023-01-09T01:14:08.463Z,6.74
2023-01-09T01:14:18.768Z,6.70
2023-01-09T01:14:29.012Z,6.71
2023-01-09T01:14:39.235Z,6.71
2023-01-09T01:14:49.491Z,6.71
2023-01-09T01:14:59.716Z,6.72
2023-01-09T01:15:09.957Z,6.71
2023-01-09T01:15:20.226Z,6.71
2023-01-09T01:15:30.512Z,6.71
2023-01-09T01:15:40.753Z,6.71
2023-01-09T01:15:51.011Z,6.71
2023-01-09T01:16:01.258Z,6.71
2023-01-09T01:16:11.474Z,6.71
2023-01-09T01:16:21.771Z,6.70
2023-01-09T01:16:32.021Z,6.71
2023-01-09T01:16:42.265Z,6.71
2023-01-09T01:16:52.538Z,6.71
2023-01-09T01:17:02.783Z,6.71
2023-01-09T01:17:13.006Z,6.70
2023-01-09T01:17:23.261Z,6.70
2023-01-09T01:17:33.508Z,6.70
2023-01-09T01:17:43.754Z,6.70
2023-01-09T01:17:54.017Z,6.70
2023-01-09T01:18:04.245Z,6.68
2023-01-09T01:18:14.494Z,6.68
2023-01-09T01:18:24.728Z,6.70
2023-01-09T01:18:34.982Z,6.70
2023-01-09T01:18:45.230Z,6.70
2023-01-09T01:18:55.463Z,6.68
2023-01-09T01:19:05.754Z,6.70
2023-01-09T01:19:15.971Z,6.68
2023-01-09T01:19:26.222Z,6.68
2023-01-09T01:19:36.477Z,6.67
2023-01-09T01:19:46.698Z,6.68
2023-01-09T01:19:56.961Z,6.68
2023-01-09T01:20:07.230Z,6.67
2023-01-09T01:20:17.452Z,6.68
2023-01-09T01:20:27.692Z,6.67
2023-01-09T01:20:37.946Z,6.68
2023-01-09T01:20:48.191Z,6.68
2023-01-09T01:20:58.415Z,6.68
2023-01-09T01:21:08.666Z,6.67
2023-01-09T01:21:18.916Z,6.67
2023-01-09T01:21:29.146Z,6.67
2023-01-09T01:21:39.371Z,6.65
2023-01-09T01:21:49.618Z,6.68
2023-01-09T01:21:59.854Z,6.67
2023-01-09T01:22:10.088Z,6.67
2023-01-09T01:22:20.332Z,6.65
2023-01-09T01:22:30.576Z,6.67
2023-01-09T01:22:40.803Z,6.65
2023-01-09T01:22:51.060Z,6.65
2023-01-09T01:23:01.282Z,6.65
2023-01-09T01:23:11.527Z,6.68
2023-01-09T01:23:21.763Z,6.67
2023-01-09T01:23:31.993Z,6.65
2023-01-09T01:23:42.241Z,6.67
2023-01-09T01:23:52.500Z,6.67
2023-01-09T01:24:02.749Z,6.65
2023-01-09T01:24:12.970Z,6.67
2023-01-09T01:24:23.240Z,6.64
2023-01-09T01:24:33.443Z,6.65
2023-01-09T01:24:43.682Z,6.65
2023-01-09T01:24:53.925Z,6.65
2023-01-09T01:25:04.150Z,6.65
2023-01-09T01:25:14.393Z,6.65
2023-01-09T01:25:24.623Z,6.65
2023-01-09T01:25:34.860Z,6.65
2023-01-09T01:25:45.117Z,6.65
2023-01-09T01:25:55.373Z,6.65
2023-01-09T01:26:05.604Z,6.64
2023-01-09T01:26:15.843Z,6.65
2023-01-09T01:26:26.075Z,6.64
2023-01-09T01:26:36.325Z,6.65
2023-01-09T01:26:46.541Z,6.64
2023-01-09T01:26:56.792Z,6.65
2023-01-09T01:27:07.027Z,6.64
2023-01-09T01:27:17.282Z,6.64
2023-01-09T01:27:27.511Z,6.64
2023-01-09T01:27:37.752Z,6.65
2023-01-09T01:27:47.998Z,6.65
2023-01-09T01:27:58.249Z,6.64
2023-01-09T01:28:08.473Z,6.65
2023-01-09T01:28:18.701Z,6.65
2023-01-09T01:28:28.958Z,6.64
2023-01-09T01:28:39.209Z,6.65
2023-01-09T01:28:49.459Z,6.64
2023-01-09T01:28:59.721Z,6.64
2023-01-09T01:29:09.941Z,6.62
2023-01-09T01:29:20.209Z,6.62
2023-01-09T01:29:30.429Z,6.62
2023-01-09T01:29:40.692Z,6.64
2023-01-09T01:29:50.934Z,6.62
2023-01-09T01:30:01.154Z,6.62
2023-01-09T01:30:11.388Z,6.64
2023-01-09T01:30:21.642Z,6.64
2023-01-09T01:30:31.887Z,6.62
2023-01-09T01:30:42.184Z,6.60
2023-01-09T01:30:52.417Z,6.64
2023-01-09T01:31:02.681Z,6.64
2023-01-09T01:31:12.938Z,6.62
2023-01-09T01:31:23.182Z,6.60
2023-01-09T01:31:33.433Z,6.60
2023-01-09T01:31:43.667Z,6.62
2023-01-09T01:31:53.922Z,6.62
2023-01-09T01:32:04.157Z,6.60
2023-01-09T01:32:14.395Z,6.60
2023-01-09T01:32:24.633Z,6.62
2023-01-09T01:32:34.909Z,6.60
2023-01-09T01:32:45.137Z,6.60
2023-01-09T01:32:55.368Z,6.62
2023-01-09T01:33:05.637Z,6.64
2023-01-09T01:33:15.865Z,6.59
2023-01-09T01:33:26.123Z,6.60
2023-01-09T01:33:36.363Z,6.60
2023-01-09T01:33:46.611Z,6.60
2023-01-09T01:33:56.855Z,6.59
2023-01-09T01:34:07.099Z,6.60
2023-01-09T01:34:17.339Z,6.59
2023-01-09T01:34:27.566Z,6.59
2023-01-09T01:34:37.794Z,6.59
2023-01-09T01:34:48.043Z,6.59
2023-01-09T01:34:58.309Z,6.59
2023-01-09T01:35:08.599Z,6.59
2023-01-09T01:35:18.813Z,6.57
2023-01-09T01:35:29.061Z,6.59
2023-01-09T01:35:39.297Z,6.59
2023-01-09T01:35:49.541Z,6.59
2023-01-09T01:35:59.805Z,6.59
2023-01-09T01:36:10.051Z,6.57
2023-01-09T01:36:20.293Z,6.59
2023-01-09T01:36:30.549Z,6.59
2023-01-09T01:36:40.816Z,6.57
2023-01-09T01:36:51.057Z,6.59
2023-01-09T01:37:01.303Z,6.57
2023-01-09T01:37:11.541Z,6.57
2023-01-09T01:37:21.817Z,6.57
2023-01-09T01:37:32.016Z,6.59
2023-01-09T01:37:42.271Z,6.57
2023-01-09T01:37:52.493Z,6.57
2023-01-09T01:38:02.741Z,6.57
2023-01-09T01:38:12.980Z,6.56
2023-01-09T01:38:23.222Z,6.57
2023-01-09T01:38:33.464Z,6.56
2023-01-09T01:38:43.719Z,6.57
2023-01-09T01:38:53.966Z,6.56
2023-01-09T01:39:04.212Z,6.57
2023-01-09T01:39:14.434Z,6.57
2023-01-09T01:39:24.684Z,6.56
2023-01-09T01:39:34.915Z,6.54
2023-01-09T01:39:45.177Z,6.56
2023-01-09T01:39:55.441Z,6.57
2023-01-09T01:40:05.659Z,6.56
2023-01-09T01:40:15.914Z,6.57
2023-01-09T01:40:26.137Z,6.56
2023-01-09T01:40:36.369Z,6.56
2023-01-09T01:40:46.621Z,6.56
2023-01-09T01:40:56.868Z,6.56
2023-01-09T01:41:07.165Z,6.56
2023-01-09T01:41:17.362Z,6.56
2023-01-09T01:41:27.609Z,6.56
2023-01-09T01:41:37.869Z,6.57
2023-01-09T01:41:48.115Z,6.54
2023-01-09T01:41:58.342Z,6.56
2023-01-09T01:42:08.577Z,6.54
2023-01-09T01:42:18.811Z,6.56
2023-01-09T01:42:29.061Z,6.54
2023-01-09T01:42:39.288Z,6.54
2023-01-09T01:42:49.544Z,6.53
2023-01-09T01:42:59.788Z,6.54
2023-01-09T01:43:10.021Z,6.54
2023-01-09T01:43:20.260Z,6.53
2023-01-09T01:43:30.520Z,6.54
2023-01-09T01:43:40.745Z,6.54
2023-01-09T01:43:51.039Z,6.54
2023-01-09T01:44:01.272Z,6.54
2023-01-09T01:44:11.486Z,6.54
2023-01-09T01:44:21.745Z,6.53
2023-01-09T01:44:32.031Z,6.54
2023-01-09T01:44:42.251Z,6.53
2023-01-09T01:44:52.517Z,6.54
2023-01-09T01:45:02.764Z,6.53
2023-01-09T01:45:12.977Z,6.54
2023-01-09T01:45:23.208Z,6.53
2023-01-09T01:45:33.465Z,6.53
2023-01-09T01:45:43.723Z,6.52
2023-01-09T01:45:54.046Z,6.53
2023-01-09T01:46:04.326Z,6.52
2023-01-09T01:46:14.640Z,6.52
2023-01-09T01:46:24.858Z,6.52
2023-01-09T01:46:35.114Z,6.53
2023-01-09T01:46:45.357Z,6.53
2023-01-09T01:46:55.606Z,6.53
2023-01-09T01:47:05.840Z,6.52
2023-01-09T01:47:16.083Z,6.52
2023-01-09T01:47:26.315Z,6.53
2023-01-09T01:47:36.543Z,6.52
2023-01-09T01:47:46.776Z,6.52
2023-01-09T01:47:57.043Z,6.52
2023-01-09T01:48:07.259Z,6.52
2023-01-09T01:48:17.498Z,6.50
2023-01-09T01:48:27.768Z,6.50
2023-01-09T01:48:37.972Z,6.50
2023-01-09T01:48:48.236Z,6.53
2023-01-09T01:48:58.465Z,6.52
2023-01-09T01:49:08.692Z,6.50
2023-01-09T01:49:18.941Z,6.52
2023-01-09T01:49:29.198Z,6.52
2023-01-09T01:49:39.427Z,6.53
2023-01-09T01:49:49.700Z,6.50
2023-01-09T01:49:59.922Z,6.52
2023-01-09T01:50:10.153Z,6.50
2023-01-09T01:50:20.388Z,6.52
2023-01-09T01:50:30.612Z,6.50
2023-01-09T01:50:40.857Z,6.50
2023-01-09T01:50:51.131Z,6.49
2023-01-09T01:51:01.374Z,6.49
2023-01-09T01:51:11.605Z,6.49
2023-01-09T01:51:21.854Z,6.47
2023-01-09T01:51:32.078Z,6.50
2023-01-09T01:51:42.334Z,6.49
2023-01-09T01:51:52.560Z,6.49
2023-01-09T01:52:02.807Z,6.50
2023-01-09T01:52:13.036Z,6.49
2023-01-09T01:52:23.289Z,6.46
2023-01-09T01:52:33.522Z,6.49
2023-01-09T01:52:43.767Z,6.49
2023-01-09T01:52:54.024Z,6.49
2023-01-09T01:53:04.256Z,6.49
2023-01-09T01:53:14.488Z,6.49
2023-01-09T01:53:24.733Z,6.50
2023-01-09T01:53:34.973Z,6.47
2023-01-09T01:53:45.221Z,6.47
2023-01-09T01:53:55.452Z,6.49
2023-01-09T01:54:05.704Z,6.47
2023-01-09T01:54:15.949Z,6.47
2023-01-09T01:54:26.179Z,6.47
2023-01-09T01:54:36.462Z,6.47
2023-01-09T01:54:46.682Z,6.47
2023-01-09T01:54:56.918Z,6.47
2023-01-09T01:55:07.174Z,6.47
2023-01-09T01:55:17.410Z,6.47
2023-01-09T01:55:27.637Z,6.47
2023-01-09T01:55:37.873Z,6.47
2023-01-09T01:55:48.110Z,6.46
2023-01-09T01:55:58.361Z,6.47
2023-01-09T01:56:08.602Z,6.46
2023-01-09T01:56:18.862Z,6.46
2023-01-09T01:56:29.083Z,6.46
2023-01-09T01:56:39.343Z,6.44
2023-01-09T01:56:49.564Z,6.47
2023-01-09T01:56:59.822Z,6.46
2023-01-09T01:57:10.073Z,6.46
2023-01-09T01:57:20.299Z,6.46
2023-01-09T01:57:30.541Z,6.46
2023-01-09T01:57:40.789Z,6.46
2023-01-09T01:57:51.031Z,6.46
2023-01-09T01:58:01.316Z,6.44
2023-01-09T01:58:11.554Z,6.44
2023-01-09T01:58:21.804Z,6.43
2023-01-09T01:58:32.029Z,6.44
2023-01-09T01:58:42.272Z,6.44
2023-01-09T01:58:52.521Z,6.44
2023-01-09T01:59:02.761Z,6.44
2023-01-09T01:59:12.984Z,6.43
2023-01-09T01:59:23.244Z,6.44
2023-01-09T01:59:33.500Z,6.43
2023-01-09T01:59:43.725Z,6.46
2023-01-09T01:59:53.964Z,6.44
2023-01-09T02:00:04.202Z,6.43
2023-01-09T02:00:14.472Z,6.43
2023-01-09T02:00:24.700Z,6.46
2023-01-09T02:00:34.948Z,6.44
2023-01-09T02:00:45.198Z,6.43
2023-01-09T02:00:55.563Z,6.43
2023-01-09T02:01:05.985Z,6.41
2023-01-09T02:01:16.339Z,6.43
2023-01-09T02:01:26.772Z,6.41
2023-01-09T02:01:36.990Z,6.41
2023-01-09T02:01:47.188Z,6.43
2023-01-09T02:01:57.613Z,6.41
2023-01-09T02:02:07.996Z,6.41
2023-01-09T02:02:18.280Z,6.41
2023-01-09T02:02:28.505Z,6.39
2023-01-09T02:02:38.733Z,6.41
2023-01-09T02:02:48.989Z,6.41
2023-01-09T02:02:59.245Z,6.41
2023-01-09T02:03:09.482Z,6.39
2023-01-09T02:03:19.755Z,6.41
2023-01-09T02:03:29.977Z,6.41
2023-01-09T02:03:40.254Z,6.39
2023-01-09T02:03:50.475Z,6.41
2023-01-09T02:04:00.690Z,6.39
2023-01-09T02:04:10.953Z,6.39
2023-01-09T02:04:21.209Z,6.41
2023-01-09T02:04:31.427Z,6.41
2023-01-09T02:04:41.685Z,6.39
2023-01-09T02:04:51.923Z,6.39
2023-01-09T02:05:02.172Z,6.39
2023-01-09T02:05:12.400Z,6.41
2023-01-09T02:05:22.671Z,6.38
2023-01-09T02:05:32.885Z,6.39
2023-01-09T02:05:43.145Z,6.39
2023-01-09T02:05:53.399Z,6.39
2023-01-09T02:06:03.634Z,6.39
2023-01-09T02:06:13.899Z,6.39
2023-01-09T02:06:24.144Z,6.38
2023-01-09T02:06:34.382Z,6.39
2023-01-09T02:06:44.612Z,6.36
2023-01-09T02:06:54.858Z,6.36
2023-01-09T02:07:05.096Z,6.36
2023-01-09T02:07:15.324Z,6.38
2023-01-09T02:07:25.564Z,6.38
2023-01-09T02:07:35.793Z,6.36
2023-01-09T02:07:46.039Z,6.39
2023-01-09T02:07:56.279Z,6.39
2023-01-09T02:08:06.520Z,6.38
2023-01-09T02:08:16.767Z,6.36
2023-01-09T02:08:26.989Z,6.35
2023-01-09T02:08:37.253Z,6.36
2023-01-09T02:08:47.473Z,6.36
2023-01-09T02:08:57.705Z,6.36
2023-01-09T02:09:07.953Z,6.36
2023-01-09T02:09:18.203Z,6.38
2023-01-09T02:09:28.432Z,6.35
2023-01-09T02:09:38.723Z,6.36
2023-01-09T02:09:48.951Z,6.35
2023-01-09T02:09:59.176Z,6.35
2023-01-09T02:10:09.421Z,6.36
2023-01-09T02:10:19.660Z,6.34
2023-01-09T02:10:29.922Z,6.34
2023-01-09T02:10:40.174Z,6.35
2023-01-09T02:10:50.417Z,6.35
2023-01-09T02:11:00.671Z,6.34
2023-01-09T02:11:10.926Z,6.34
2023-01-09T02:11:21.155Z,6.34
2023-01-09T02:11:31.413Z,6.32
2023-01-09T02:11:41.632Z,6.34
2023-01-09T02:11:51.885Z,6.32
2023-01-09T02:12:02.131Z,6.32
2023-01-09T02:12:12.361Z,6.32
2023-01-09T02:12:22.599Z,6.34
2023-01-09T02:12:32.849Z,6.32
2023-01-09T02:12:43.082Z,6.34
2023-01-09T02:12:53.335Z,6.34
2023-01-09T02:13:03.575Z,6.32
2023-01-09T02:13:13.812Z,6.32
2023-01-09T02:13:24.045Z,6.32
2023-01-09T02:13:34.287Z,6.32
2023-01-09T02:13:44.544Z,6.31
2023-01-09T02:13:54.784Z,6.31
2023-01-09T02:14:05.029Z,6.31
2023-01-09T02:14:15.271Z,6.31
2023-01-09T02:14:25.501Z,6.31
2023-01-09T02:14:35.749Z,6.29
2023-01-09T02:14:45.989Z,6.31
2023-01-09T02:14:56.235Z,6.32
2023-01-09T02:15:06.468Z,6.29
2023-01-09T02:15:16.701Z,6.32
2023-01-09T02:15:26.941Z,6.29
2023-01-09T02:15:37.199Z,6.28
2023-01-09T02:15:47.567Z,6.29
2023-01-09T02:15:57.822Z,6.26
2023-01-09T02:16:08.186Z,6.29
2023-01-09T02:16:18.390Z,6.28